createdAt,value
2023-01-05T00:00:34.656Z,79.73
2023-01-05T00:01:36.870Z,78.92
2023-01-05T00:02:39.120Z,79.45
2023-01-05T00:03:41.434Z,79.03
2023-01-05T00:04:43.172Z,78.96
2023-01-05T00:05:44.788Z,78.77
2023-01-05T00:06:46.395Z,79.21
2023-01-05T00:07:47.999Z,79.54
2023-01-05T00:08:49.649Z,79.23
2023-01-05T00:09:51.191Z,79.58
2023-01-05T00:11:11.098Z,79.76
2023-01-05T00:12:30.922Z,79.64
2023-01-05T00:13:50.812Z,80.40
2023-01-05T00:15:10.673Z,79.90
2023-01-05T00:16:32.087Z,80.65
2023-01-05T00:17:52.419Z,79.42
2023-01-05T00:19:12.605Z,79.91
2023-01-05T00:20:35.667Z,80.10
2023-01-05T00:21:55.993Z,79.92
2023-01-05T00:22:57.626Z,80.20
2023-01-05T00:23:59.313Z,80.06
2023-01-05T00:25:09.249Z,80.13
2023-01-05T00:26:13.628Z,80.52
2023-01-05T00:27:15.192Z,80.47
2023-01-05T00:28:16.792Z,79.72
2023-01-05T00:29:18.412Z,79.69
2023-01-05T00:30:22.418Z,79.88
2023-01-05T00:31:24.057Z,79.94
2023-01-05T00:32:26.676Z,80.11
2023-01-05T00:33:28.146Z,80.09
2023-01-05T00:34:29.786Z,80.31
2023-01-05T00:35:31.389Z,80.79
2023-01-05T00:36:32.966Z,80.35
2023-01-05T00:37:35.189Z,80.38
2023-01-05T00:38:36.775Z,80.04
2023-01-05T00:39:38.364Z,79.82
2023-01-05T00:40:40.036Z,80.20
2023-01-05T00:41:41.702Z,79.91
2023-01-05T00:42:43.317Z,80.05
2023-01-05T00:43:44.986Z,80.69
2023-01-05T00:44:46.649Z,80.33
2023-01-05T00:45:48.256Z,80.06
2023-01-05T00:46:49.860Z,80.14
2023-01-05T00:47:53.738Z,80.40
2023-01-05T00:48:55.388Z,80.14
2023-01-05T00:49:56.981Z,80.84
2023-01-05T00:50:58.621Z,81.73
2023-01-05T00:52:00.835Z,80.86
2023-01-05T00:53:02.444Z,81.34
2023-01-05T00:54:04.178Z,81.14
2023-01-05T00:55:06.371Z,80.85
2023-01-05T00:56:07.936Z,80.32
2023-01-05T00:57:13.308Z,81.06
2023-01-05T00:58:14.900Z,80.74
2023-01-05T00:59:17.358Z,81.00
2023-01-05T01:00:19.590Z,80.88
2023-01-05T01:01:21.869Z,82.23
2023-01-05T01:02:23.779Z,80.91
2023-01-05T01:03:25.514Z,80.85
2023-01-05T01:04:27.167Z,80.38
2023-01-05T01:05:28.847Z,80.24
2023-01-05T01:06:31.715Z,80.54
2023-01-05T01:07:33.305Z,80.80
2023-01-05T01:08:34.917Z,80.77
2023-01-05T01:09:37.373Z,80.61
2023-01-05T01:10:39.586Z,80.73
2023-01-05T01:11:41.270Z,81.18
2023-01-05T01:12:42.936Z,81.17
2023-01-05T01:13:45.469Z,81.41
2023-01-05T01:14:48.146Z,82.20
2023-01-05T01:15:50.690Z,82.40
2023-01-05T01:16:52.482Z,82.89
2023-01-05T01:17:54.198Z,84.28
2023-01-05T01:18:56.750Z,84.40
2023-01-05T01:19:58.265Z,84.27
2023-01-05T01:20:59.868Z,85.02
2023-01-05T01:22:01.770Z,84.82
2023-01-05T01:23:04.503Z,84.61
2023-01-05T01:24:06.492Z,84.66
2023-01-05T01:25:08.696Z,84.08
2023-01-05T01:26:12.475Z,85.02
2023-01-05T01:27:14.147Z,84.58
2023-01-05T01:28:15.842Z,84.60
2023-01-05T01:29:17.963Z,84.66
2023-01-05T01:30:20.063Z,84.33
2023-01-05T01:31:21.802Z,84.51
2023-01-05T01:32:24.489Z,84.22
2023-01-05T01:33:26.868Z,83.88
2023-01-05T01:34:28.704Z,83.66
2023-01-05T01:35:30.362Z,83.65
2023-01-05T01:36:32.087Z,83.82
2023-01-05T01:37:33.919Z,83.56
2023-01-05T01:38:36.271Z,83.62
2023-01-05T01:39:37.861Z,83.45
2023-01-05T01:40:45.301Z,83.84
2023-01-05T01:41:47.323Z,84.16
2023-01-05T01:42:49.048Z,83.77
2023-01-05T01:43:54.556Z,83.90
2023-01-05T01:44:59.719Z,84.47
2023-01-05T01:46:06.823Z,84.82
2023-01-05T01:47:11.847Z,84.06
2023-01-05T01:48:17.584Z,84.17
2023-01-05T01:49:19.238Z,83.87
2023-01-05T01:50:31.669Z,83.79
2023-01-05T01:51:39.012Z,82.79
2023-01-05T01:52:41.055Z,83.19
2023-01-05T01:53:48.638Z,83.02
2023-01-05T01:54:51.617Z,83.79
2023-01-05T01:55:54.397Z,83.62
2023-01-05T01:56:56.357Z,84.11
2023-01-05T01:57:59.393Z,83.88
2023-01-05T01:59:01.136Z,83.63
2023-01-05T02:00:08.329Z,83.22
2023-01-05T02:01:19.160Z,84.04
2023-01-05T02:02:22.093Z,83.11
2023-01-05T02:03:25.920Z,83.51
2023-01-05T02:04:31.088Z,83.17
2023-01-05T02:05:33.957Z,82.58
2023-01-05T02:06:35.762Z,83.04
2023-01-05T02:07:43.573Z,83.42
2023-01-05T02:08:47.592Z,83.38
2023-01-05T02:09:49.248Z,83.42
2023-01-05T02:11:12.053Z,83.49
2023-01-05T02:12:36.652Z,83.84
2023-01-05T02:14:05.503Z,83.42
2023-01-05T02:15:22.117Z,83.88
2023-01-05T02:17:04.913Z,84.52
2023-01-05T02:18:14.303Z,84.88
2023-01-05T02:19:24.805Z,85.47
2023-01-05T02:20:58.390Z,86.26
2023-01-05T02:22:42.788Z,87.35
2023-01-05T02:24:11.228Z,87.83
2023-01-05T02:25:45.506Z,88.46
2023-01-05T02:27:14.442Z,88.51
2023-01-05T02:28:34.585Z,88.86
2023-01-05T02:29:51.279Z,89.17
2023-01-05T02:31:17.785Z,88.88
2023-01-05T02:32:52.310Z,89.31
2023-01-05T02:34:12.028Z,89.65
2023-01-05T02:35:26.565Z,89.28
2023-01-05T02:36:47.015Z,88.84
2023-01-05T02:37:59.620Z,88.42
2023-01-05T02:39:20.888Z,88.90
2023-01-05T02:40:31.824Z,89.01
2023-01-05T02:41:59.770Z,88.99
2023-01-05T02:43:02.369Z,88.82
2023-01-05T02:44:04.473Z,88.96
2023-01-05T02:45:07.652Z,88.64
2023-01-05T02:46:09.321Z,88.41
2023-01-05T02:47:27.563Z,87.76
2023-01-05T02:48:31.648Z,88.75
2023-01-05T02:49:37.306Z,88.39
2023-01-05T02:50:51.065Z,87.97
2023-01-05T02:51:55.703Z,87.98
2023-01-05T02:53:04.105Z,87.96
2023-01-05T02:54:09.131Z,87.78
2023-01-05T02:55:14.849Z,87.50
2023-01-05T02:56:22.011Z,87.89
2023-01-05T02:57:50.587Z,87.69
2023-01-05T02:59:12.445Z,87.54
2023-01-05T03:00:22.197Z,87.29
2023-01-05T03:01:29.954Z,87.80
2023-01-05T03:02:32.139Z,87.36
2023-01-05T03:04:07.190Z,86.85
2023-01-05T03:05:13.068Z,87.00
2023-01-05T03:06:24.454Z,86.57
2023-01-05T03:07:29.639Z,87.20
2023-01-05T03:08:33.143Z,86.85
2023-01-05T03:09:39.916Z,86.54
2023-01-05T03:11:29.210Z,86.82
2023-01-05T03:12:53.191Z,86.73
2023-01-05T03:13:59.566Z,86.57
2023-01-05T03:15:09.115Z,86.55
2023-01-05T03:16:13.754Z,86.67
2023-01-05T03:17:18.910Z,86.61
2023-01-05T03:18:23.047Z,86.69
2023-01-05T03:19:39.859Z,86.17
2023-01-05T03:20:46.990Z,86.21
2023-01-05T03:22:08.375Z,85.77
2023-01-05T03:23:34.829Z,85.53
2023-01-05T03:24:56.580Z,85.16
2023-01-05T03:26:17.266Z,85.76
2023-01-05T03:27:37.543Z,84.99
2023-01-05T03:29:02.963Z,85.25
2023-01-05T03:30:29.105Z,84.97
2023-01-05T03:32:03.170Z,84.98
2023-01-05T03:33:30.704Z,85.84
2023-01-05T03:35:03.694Z,84.86
2023-01-05T03:36:05.745Z,85.05
2023-01-05T03:37:10.855Z,85.09
2023-01-05T03:38:24.156Z,85.04
2023-01-05T03:39:29.437Z,84.75
2023-01-05T03:40:35.204Z,85.07
2023-01-05T03:41:37.280Z,84.52
2023-01-05T03:42:39.023Z,84.53
2023-01-05T03:43:41.391Z,84.20
2023-01-05T03:44:46.408Z,83.81
2023-01-05T03:45:53.975Z,83.37
2023-01-05T03:46:59.546Z,83.84
2023-01-05T03:48:01.159Z,83.49
2023-01-05T03:49:03.917Z,83.58
2023-01-05T03:50:06.626Z,83.25
2023-01-05T03:51:08.578Z,83.26
2023-01-05T03:52:12.156Z,83.39
2023-01-05T03:53:16.321Z,83.25
2023-01-05T03:54:19.719Z,83.40
2023-01-05T03:55:22.891Z,82.96
2023-01-05T03:56:27.048Z,83.22
2023-01-05T03:57:31.054Z,82.80
2023-01-05T03:58:33.579Z,83.27
2023-01-05T03:59:35.708Z,82.61
2023-01-05T04:00:38.516Z,83.12
2023-01-05T04:01:44.069Z,83.85
2023-01-05T04:02:48.771Z,82.43
2023-01-05T04:03:54.817Z,82.34
2023-01-05T04:04:56.656Z,81.95
2023-01-05T04:05:58.273Z,82.37
2023-01-05T04:07:02.359Z,82.15
2023-01-05T04:08:07.111Z,82.23
2023-01-05T04:09:10.448Z,82.59
2023-01-05T04:10:13.948Z,82.27
2023-01-05T04:11:19.391Z,83.07
2023-01-05T04:12:26.901Z,82.29
2023-01-05T04:13:28.523Z,82.41
2023-01-05T04:14:30.550Z,82.08
2023-01-05T04:15:33.514Z,82.27
2023-01-05T04:16:37.469Z,82.10
2023-01-05T04:17:47.951Z,82.44
2023-01-05T04:18:49.994Z,81.74
2023-01-05T04:19:53.791Z,82.08
2023-01-05T04:20:56.548Z,82.27
2023-01-05T04:21:59.828Z,82.15
2023-01-05T04:23:03.795Z,81.94
2023-01-05T04:24:12.040Z,82.46
2023-01-05T04:25:17.083Z,82.04
2023-01-05T04:26:19.075Z,82.29
2023-01-05T04:27:23.837Z,82.07
2023-01-05T04:28:25.863Z,82.17
2023-01-05T04:29:30.583Z,82.18
2023-01-05T04:30:33.817Z,82.75
2023-01-05T04:31:35.772Z,82.05
2023-01-05T04:32:37.608Z,81.72
2023-01-05T04:33:40.106Z,81.99
2023-01-05T04:34:42.476Z,81.93
2023-01-05T04:35:44.017Z,81.87
2023-01-05T04:36:48.017Z,81.58
2023-01-05T04:37:51.427Z,82.03
2023-01-05T04:38:53.106Z,82.13
2023-01-05T04:39:55.542Z,81.68
2023-01-05T04:40:57.143Z,81.81
2023-01-05T04:42:00.466Z,81.92
2023-01-05T04:43:02.898Z,81.86
2023-01-05T04:44:04.738Z,81.63
2023-01-05T04:45:06.728Z,81.97
2023-01-05T04:46:08.436Z,82.07
2023-01-05T04:47:10.837Z,81.97
2023-01-05T04:48:16.037Z,81.49
2023-01-05T04:49:17.759Z,82.05
2023-01-05T04:50:23.507Z,82.44
2023-01-05T04:51:25.236Z,82.56
2023-01-05T04:52:27.860Z,81.87
2023-01-05T04:53:29.843Z,81.95
2023-01-05T04:54:31.645Z,82.74
2023-01-05T04:55:33.299Z,82.48
2023-01-05T04:56:35.063Z,82.28
2023-01-05T04:57:39.071Z,81.67
2023-01-05T04:58:41.317Z,82.08
2023-01-05T04:59:42.966Z,82.11
2023-01-05T05:00:44.605Z,82.14
2023-01-05T05:01:46.396Z,82.26
2023-01-05T05:02:49.780Z,81.55
2023-01-05T05:03:51.615Z,82.71
2023-01-05T05:04:55.318Z,82.50
2023-01-05T05:05:57.226Z,82.11
2023-01-05T05:07:01.116Z,81.90
2023-01-05T05:08:06.143Z,81.84
2023-01-05T05:09:08.798Z,81.98
2023-01-05T05:10:12.222Z,82.73
2023-01-05T05:11:16.686Z,81.88
2023-01-05T05:12:20.989Z,82.01
2023-01-05T05:13:25.779Z,82.10
2023-01-05T05:14:28.405Z,82.77
2023-01-05T05:15:33.498Z,82.13
2023-01-05T05:16:37.411Z,82.40
2023-01-05T05:17:41.056Z,82.16
2023-01-05T05:18:46.417Z,82.85
2023-01-05T05:19:52.757Z,82.28
2023-01-05T05:20:56.441Z,82.30
2023-01-05T05:22:03.842Z,82.70
2023-01-05T05:23:05.575Z,82.69
2023-01-05T05:24:08.549Z,82.14
2023-01-05T05:25:13.099Z,82.33
2023-01-05T05:26:18.342Z,82.01
2023-01-05T05:27:21.637Z,82.08
2023-01-05T05:28:28.012Z,82.46
2023-01-05T05:29:29.670Z,82.66
2023-01-05T05:30:31.291Z,82.56
2023-01-05T05:31:32.886Z,82.28
2023-01-05T05:32:37.098Z,82.75
2023-01-05T05:33:42.647Z,83.15
2023-01-05T05:34:44.273Z,83.14
2023-01-05T05:35:45.881Z,82.30
2023-01-05T05:36:47.563Z,82.78
2023-01-05T05:37:56.045Z,82.36
2023-01-05T05:38:58.762Z,83.01
2023-01-05T05:40:00.344Z,83.27
2023-01-05T05:41:02.044Z,83.10
2023-01-05T05:42:03.727Z,82.67
2023-01-05T05:43:05.330Z,82.97
2023-01-05T05:44:07.519Z,83.13
2023-01-05T05:45:09.469Z,83.00
2023-01-05T05:46:11.167Z,83.07
2023-01-05T05:47:12.931Z,82.11
2023-01-05T05:48:14.571Z,82.39
2023-01-05T05:49:16.195Z,82.54
2023-01-05T05:50:17.920Z,82.46
2023-01-05T05:51:21.830Z,82.30
2023-01-05T05:52:23.550Z,82.40
2023-01-05T05:53:25.311Z,82.67
2023-01-05T05:54:26.896Z,82.42
2023-01-05T05:55:28.549Z,82.84
2023-01-05T05:56:30.318Z,82.18
2023-01-05T05:57:31.881Z,82.88
2023-01-05T05:58:33.487Z,83.26
2023-01-05T05:59:35.164Z,83.25
2023-01-05T06:00:36.762Z,82.98
2023-01-05T06:01:38.459Z,83.69
2023-01-05T06:02:40.268Z,83.24
2023-01-05T06:03:42.014Z,83.07
2023-01-05T06:04:43.750Z,82.82
2023-01-05T06:05:45.688Z,83.57
2023-01-05T06:06:47.308Z,83.06
2023-01-05T06:07:48.908Z,82.77
2023-01-05T06:08:50.516Z,82.94
2023-01-05T06:09:52.122Z,82.99
2023-01-05T06:10:53.765Z,83.27
2023-01-05T06:11:55.462Z,82.89
2023-01-05T06:12:57.149Z,82.98
2023-01-05T06:13:58.801Z,83.53
2023-01-05T06:15:00.397Z,83.43
2023-01-05T06:16:02.087Z,83.97
2023-01-05T06:17:03.716Z,84.14
2023-01-05T06:18:05.375Z,83.98
2023-01-05T06:19:07.512Z,83.89
2023-01-05T06:20:09.843Z,84.07
2023-01-05T06:21:11.423Z,84.05
2023-01-05T06:22:13.060Z,83.98
2023-01-05T06:23:14.822Z,84.31
2023-01-05T06:24:16.426Z,84.00
2023-01-05T06:25:18.171Z,84.26
2023-01-05T06:26:19.997Z,84.28
2023-01-05T06:27:21.636Z,84.49
2023-01-05T06:28:23.246Z,85.02
2023-01-05T06:29:24.872Z,85.13
2023-01-05T06:30:27.325Z,84.79
2023-01-05T06:31:29.137Z,84.14
2023-01-05T06:32:30.772Z,84.20
2023-01-05T06:33:32.434Z,83.94
2023-01-05T06:34:34.111Z,83.67
2023-01-05T06:35:35.676Z,84.09
2023-01-05T06:36:37.243Z,84.07
2023-01-05T06:37:38.872Z,84.23
2023-01-05T06:38:40.535Z,84.84
2023-01-05T06:39:42.099Z,84.75
2023-01-05T06:40:44.533Z,83.83
2023-01-05T06:41:46.080Z,84.78
2023-01-05T06:42:47.743Z,84.45
2023-01-05T06:43:49.311Z,84.77
2023-01-05T06:44:51.225Z,84.42
2023-01-05T06:45:52.922Z,85.22
2023-01-05T06:46:54.623Z,85.24
2023-01-05T06:47:57.533Z,86.27
2023-01-05T06:48:59.188Z,85.92
2023-01-05T06:50:00.783Z,86.29
2023-01-05T06:51:02.401Z,85.64
2023-01-05T06:52:04.097Z,85.97
2023-01-05T06:53:05.709Z,86.28
2023-01-05T06:54:07.497Z,86.84
2023-01-05T06:55:10.764Z,86.91
2023-01-05T06:56:12.456Z,86.89
2023-01-05T06:57:14.072Z,87.40
2023-01-05T06:58:15.652Z,87.43
2023-01-05T06:59:17.350Z,87.08
2023-01-05T07:00:19.146Z,87.27
2023-01-05T07:01:20.985Z,86.72
2023-01-05T07:02:22.695Z,86.56
2023-01-05T07:03:24.762Z,86.69
2023-01-05T07:04:26.355Z,86.60
2023-01-05T07:05:28.006Z,86.69
2023-01-05T07:06:29.688Z,86.90
2023-01-05T07:07:31.357Z,86.89
2023-01-05T07:08:32.974Z,86.62
2023-01-05T07:09:34.659Z,85.95
2023-01-05T07:10:36.248Z,85.58
2023-01-05T07:11:37.899Z,86.41
2023-01-05T07:12:39.537Z,85.96
2023-01-05T07:13:41.233Z,85.83
2023-01-05T07:14:42.876Z,85.83
2023-01-05T07:15:44.429Z,86.42
2023-01-05T07:16:46.160Z,85.82
2023-01-05T07:17:47.749Z,86.16
2023-01-05T07:18:49.406Z,85.84
2023-01-05T07:19:50.985Z,85.88
2023-01-05T07:20:52.618Z,85.25
2023-01-05T07:21:56.908Z,85.21
2023-01-05T07:22:58.825Z,85.38
2023-01-05T07:24:00.472Z,84.75
2023-01-05T07:25:02.083Z,84.58
2023-01-05T07:26:08.420Z,85.07
2023-01-05T07:27:10.318Z,85.34
2023-01-05T07:28:12.280Z,85.33
2023-01-05T07:29:14.109Z,85.31
2023-01-05T07:30:15.694Z,85.54
2023-01-05T07:31:17.362Z,84.71
2023-01-05T07:32:19.002Z,84.68
2023-01-05T07:33:20.602Z,84.27
2023-01-05T07:34:23.235Z,84.96
2023-01-05T07:35:24.850Z,84.74
2023-01-05T07:36:26.472Z,84.32
2023-01-05T07:37:28.124Z,84.92
2023-01-05T07:38:29.992Z,84.31
2023-01-05T07:39:31.544Z,84.60
2023-01-05T07:40:33.160Z,84.37
2023-01-05T07:41:34.712Z,84.46
2023-01-05T07:42:36.323Z,84.82
2023-01-05T07:43:38.569Z,84.07
2023-01-05T07:44:40.181Z,84.41
2023-01-05T07:45:42.093Z,84.15
2023-01-05T07:46:43.715Z,83.90
2023-01-05T07:47:45.434Z,84.02
2023-01-05T07:48:47.036Z,84.42
2023-01-05T07:49:48.786Z,84.28
2023-01-05T07:50:50.337Z,83.82
2023-01-05T07:51:51.932Z,84.16
2023-01-05T07:52:53.521Z,84.66
2023-01-05T07:53:56.107Z,84.44
2023-01-05T07:54:58.303Z,84.40
2023-01-05T07:56:01.403Z,85.19
2023-01-05T07:57:02.999Z,85.66
2023-01-05T07:58:04.599Z,85.39
2023-01-05T07:59:06.191Z,85.47
2023-01-05T08:00:08.293Z,86.28
2023-01-05T08:01:18.379Z,85.84
2023-01-05T08:02:20.590Z,86.42
2023-01-05T08:03:24.251Z,87.54
2023-01-05T08:04:25.989Z,88.15
2023-01-05T08:05:30.245Z,89.35
2023-01-05T08:06:31.839Z,89.64
2023-01-05T08:07:35.626Z,90.34
2023-01-05T08:08:37.500Z,90.47
2023-01-05T08:09:57.422Z,90.77
2023-01-05T08:10:59.029Z,91.33
2023-01-05T08:12:00.650Z,91.30
2023-01-05T08:13:22.955Z,91.65
2023-01-05T08:14:24.575Z,91.70
2023-01-05T08:15:26.201Z,92.12
2023-01-05T08:16:30.246Z,92.10
2023-01-05T08:17:31.895Z,91.85
2023-01-05T08:18:33.596Z,92.16
2023-01-05T08:19:35.150Z,91.86
2023-01-05T08:20:37.142Z,92.21
2023-01-05T08:21:38.866Z,91.98
2023-01-05T08:22:40.478Z,91.45
2023-01-05T08:23:42.113Z,91.61
2023-01-05T08:24:43.711Z,91.83
2023-01-05T08:25:45.321Z,91.42
2023-01-05T08:26:49.917Z,91.62
2023-01-05T08:27:51.596Z,91.40
2023-01-05T08:28:53.500Z,91.32
2023-01-05T08:29:55.131Z,91.40
2023-01-05T08:31:13.328Z,90.70
2023-01-05T08:32:14.956Z,91.26
2023-01-05T08:33:16.674Z,91.10
2023-01-05T08:34:18.265Z,91.07
2023-01-05T08:35:19.809Z,90.81
2023-01-05T08:36:21.654Z,90.79
2023-01-05T08:37:23.167Z,90.43
2023-01-05T08:38:25.327Z,90.67
2023-01-05T08:39:26.867Z,89.84
2023-01-05T08:40:28.880Z,90.05
2023-01-05T08:41:32.744Z,90.71
2023-01-05T08:42:34.962Z,91.39
2023-01-05T08:43:36.532Z,91.09
2023-01-05T08:44:38.133Z,90.85
2023-01-05T08:45:39.850Z,91.26
2023-01-05T08:46:41.502Z,90.70
2023-01-05T08:47:43.370Z,91.30
2023-01-05T08:48:51.219Z,90.40
2023-01-05T08:49:52.860Z,90.16
2023-01-05T08:50:54.843Z,90.82
2023-01-05T08:51:56.516Z,90.39
2023-01-05T08:52:58.624Z,90.70
2023-01-05T08:54:00.297Z,90.36
2023-01-05T08:55:01.963Z,89.64
2023-01-05T08:56:03.692Z,89.77
2023-01-05T08:57:05.299Z,89.68
2023-01-05T08:58:06.896Z,89.81
2023-01-05T08:59:12.499Z,88.97
2023-01-05T09:00:17.308Z,88.59
2023-01-05T09:01:20.989Z,89.14
2023-01-05T09:02:25.690Z,88.49
2023-01-05T09:03:28.015Z,88.27
2023-01-05T09:04:29.727Z,88.42
2023-01-05T09:05:32.189Z,87.92
2023-01-05T09:06:33.705Z,88.27
2023-01-05T09:07:35.447Z,88.25
2023-01-05T09:08:37.066Z,87.34
2023-01-05T09:09:38.907Z,87.51
2023-01-05T09:10:40.471Z,87.19
2023-01-05T09:11:42.073Z,86.74
2023-01-05T09:12:43.859Z,87.20
2023-01-05T09:13:47.814Z,86.69
2023-01-05T09:14:49.436Z,85.58
2023-01-05T09:15:51.038Z,85.23
2023-01-05T09:17:08.697Z,85.91
2023-01-05T09:18:10.865Z,85.46
2023-01-05T09:19:13.571Z,85.32
2023-01-05T09:20:15.162Z,85.30
2023-01-05T09:21:17.417Z,84.99
2023-01-05T09:22:19.056Z,84.48
2023-01-05T09:23:20.625Z,84.54
2023-01-05T09:24:22.347Z,84.90
2023-01-05T09:25:23.911Z,84.56
2023-01-05T09:26:25.536Z,85.07
2023-01-05T09:27:27.132Z,84.41
2023-01-05T09:28:28.706Z,84.07
2023-01-05T09:29:30.339Z,84.75
2023-01-05T09:30:38.479Z,84.67
2023-01-05T09:31:44.227Z,84.71
2023-01-05T09:32:45.923Z,84.09
2023-01-05T09:33:48.132Z,83.88
2023-01-05T09:34:49.847Z,84.25
2023-01-05T09:35:57.615Z,83.65
2023-01-05T09:36:59.432Z,84.30
2023-01-05T09:38:01.028Z,83.85
2023-01-05T09:39:04.536Z,83.61
2023-01-05T09:40:06.768Z,83.54
2023-01-05T09:41:17.126Z,84.30
2023-01-05T09:42:21.166Z,84.53
2023-01-05T09:43:25.987Z,83.74
2023-01-05T09:44:30.413Z,83.10
2023-01-05T09:45:32.075Z,83.91
2023-01-05T09:46:36.459Z,83.75
2023-01-05T09:47:40.420Z,83.11
2023-01-05T09:48:45.887Z,83.05
2023-01-05T09:49:49.412Z,83.14
2023-01-05T09:50:51.552Z,82.82
2023-01-05T09:52:00.889Z,82.67
2023-01-05T09:53:02.560Z,82.78
2023-01-05T09:54:04.352Z,82.93
2023-01-05T09:55:17.402Z,82.70
2023-01-05T09:57:08.128Z,82.64
2023-01-05T09:57:56.738Z,81.81
2023-01-05T09:59:04.191Z,82.15
2023-01-05T10:00:07.135Z,81.74
2023-01-05T10:01:14.469Z,81.94
2023-01-05T10:02:31.542Z,81.78
2023-01-05T10:04:02.807Z,81.67
2023-01-05T10:05:00.446Z,81.13
2023-01-05T10:06:02.612Z,81.05
2023-01-05T10:07:07.675Z,81.54
2023-01-05T10:08:18.092Z,80.64
2023-01-05T10:09:25.148Z,80.66
2023-01-05T10:10:38.620Z,80.58
2023-01-05T10:12:03.328Z,80.88
2023-01-05T10:13:11.216Z,80.72
2023-01-05T10:14:26.549Z,80.55
2023-01-05T10:15:30.891Z,80.27
2023-01-05T10:16:32.830Z,79.99
2023-01-05T10:17:41.731Z,80.36
2023-01-05T10:18:44.333Z,80.53
2023-01-05T10:19:46.978Z,80.13
2023-01-05T10:20:54.087Z,79.70
2023-01-05T10:22:16.137Z,79.81
2023-01-05T10:23:26.611Z,80.15
2023-01-05T10:24:54.342Z,80.07
2023-01-05T10:26:11.534Z,80.61
2023-01-05T10:27:26.458Z,80.20
2023-01-05T10:28:40.827Z,79.97
2023-01-05T10:29:47.039Z,79.96
2023-01-05T10:30:59.682Z,80.14
2023-01-05T10:32:27.234Z,79.09
2023-01-05T10:33:41.516Z,79.30
2023-01-05T10:34:54.019Z,78.93
2023-01-05T10:36:10.307Z,78.96
2023-01-05T10:37:29.142Z,79.18
2023-01-05T10:38:54.728Z,78.79
2023-01-05T10:39:59.193Z,79.04
2023-01-05T10:41:13.275Z,78.80
2023-01-05T10:42:21.417Z,78.08
2023-01-05T10:43:42.577Z,78.19
2023-01-05T10:44:53.217Z,77.85
2023-01-05T10:46:28.677Z,77.95
2023-01-05T10:47:16.861Z,78.34
2023-01-05T10:48:20.180Z,77.99
2023-01-05T10:49:27.021Z,78.46
2023-01-05T10:50:40.696Z,78.30
2023-01-05T10:51:42.952Z,77.80
2023-01-05T10:52:45.717Z,78.07
2023-01-05T10:53:47.629Z,77.78
2023-01-05T10:54:54.051Z,78.21
2023-01-05T10:56:06.099Z,77.77
2023-01-05T10:57:35.758Z,78.01
2023-01-05T10:58:40.263Z,77.41
2023-01-05T11:00:17.704Z,76.77
2023-01-05T11:01:28.387Z,76.44
2023-01-05T11:02:32.507Z,77.21
2023-01-05T11:04:23.049Z,77.41
2023-01-05T11:05:04.821Z,77.42
2023-01-05T11:06:08.991Z,77.11
2023-01-05T11:07:10.680Z,77.34
2023-01-05T11:08:20.310Z,78.24
2023-01-05T11:09:23.887Z,77.54
2023-01-05T11:10:41.303Z,76.64
2023-01-05T11:11:43.238Z,76.96
2023-01-05T11:12:51.996Z,76.71
2023-01-05T11:13:55.753Z,76.85
2023-01-05T11:14:58.992Z,77.27
2023-01-05T11:16:10.305Z,76.91
2023-01-05T11:17:16.750Z,76.16
2023-01-05T11:18:42.420Z,75.94
2023-01-05T11:19:46.185Z,75.58
2023-01-05T11:21:11.377Z,76.40
2023-01-05T11:22:44.362Z,76.29
2023-01-05T11:23:56.764Z,76.06
2023-01-05T11:25:17.122Z,75.65
2023-01-05T11:26:18.729Z,76.13
2023-01-05T11:27:20.308Z,76.10
2023-01-05T11:28:21.924Z,76.21
2023-01-05T11:29:23.517Z,76.75
2023-01-05T11:30:25.524Z,76.66
2023-01-05T11:31:47.328Z,77.08
2023-01-05T11:32:49.028Z,76.92
2023-01-05T11:33:56.437Z,76.95
2023-01-05T11:34:58.038Z,76.44
2023-01-05T11:35:59.827Z,76.14
2023-01-05T11:37:21.715Z,76.24
2023-01-05T11:38:28.742Z,76.54
2023-01-05T11:39:34.611Z,76.68
2023-01-05T11:40:36.650Z,76.72
2023-01-05T11:41:38.310Z,77.82
2023-01-05T11:42:43.463Z,77.99
2023-01-05T11:43:47.097Z,77.15
2023-01-05T11:44:52.652Z,77.54
2023-01-05T11:45:56.501Z,77.36
2023-01-05T11:46:58.579Z,77.56
2023-01-05T11:48:03.335Z,77.33
2023-01-05T11:49:04.956Z,76.94
2023-01-05T11:50:10.011Z,77.01
2023-01-05T11:51:34.876Z,76.82
2023-01-05T11:52:39.522Z,77.47
2023-01-05T11:53:41.228Z,76.88
2023-01-05T11:54:44.483Z,76.94
2023-01-05T11:55:46.084Z,76.62
2023-01-05T11:56:47.601Z,76.35
2023-01-05T11:57:59.787Z,76.50
2023-01-05T11:59:01.981Z,76.63
2023-01-05T12:00:03.828Z,77.06
2023-01-05T12:01:41.645Z,77.19
2023-01-05T12:02:55.548Z,76.88
2023-01-05T12:04:03.998Z,77.77
2023-01-05T12:05:38.246Z,77.53
2023-01-05T12:06:45.615Z,78.15
2023-01-05T12:07:52.057Z,78.24
2023-01-05T12:09:26.413Z,78.54
2023-01-05T12:10:41.871Z,78.56
2023-01-05T12:12:31.197Z,77.74
2023-01-05T12:13:56.888Z,78.34
2023-01-05T12:15:23.292Z,78.19
2023-01-05T12:16:34.866Z,77.17
2023-01-05T12:18:00.918Z,76.80
2023-01-05T12:19:25.073Z,76.87
2023-01-05T12:21:03.485Z,77.34
2023-01-05T12:22:39.102Z,76.90
2023-01-05T12:23:56.726Z,76.56
2023-01-05T12:25:19.680Z,77.30
2023-01-05T12:26:36.511Z,77.38
2023-01-05T12:28:05.060Z,77.29
2023-01-05T12:34:13.686Z,76.68
2023-01-05T12:35:25.451Z,76.92
2023-01-05T12:36:59.600Z,76.21
2023-01-05T12:38:38.141Z,75.67
2023-01-05T12:39:39.626Z,75.72
2023-01-05T12:41:02.748Z,76.00
2023-01-05T12:42:10.391Z,76.11
2023-01-05T12:43:24.338Z,77.12
2023-01-05T12:44:48.380Z,76.67
2023-01-05T12:46:11.014Z,76.97
2023-01-05T12:47:30.949Z,76.80
2023-01-05T12:48:40.326Z,76.79
2023-01-05T12:50:00.817Z,76.19
2023-01-05T12:51:12.846Z,76.65
2023-01-05T12:52:34.815Z,76.54
2023-01-05T12:53:36.396Z,76.37
2023-01-05T12:54:48.861Z,76.83
2023-01-05T12:55:54.450Z,76.05
2023-01-05T12:57:00.185Z,76.80
2023-01-05T12:58:06.594Z,77.43
2023-01-05T12:59:11.078Z,77.05
2023-01-05T13:00:16.039Z,77.31
2023-01-05T13:01:23.907Z,77.60
2023-01-05T13:02:39.231Z,78.18
2023-01-05T13:04:03.646Z,78.78
2023-01-05T13:05:30.515Z,78.80
2023-01-05T13:06:37.509Z,79.62
2023-01-05T13:07:45.434Z,79.79
2023-01-05T13:08:56.387Z,80.04
2023-01-05T13:10:03.307Z,80.52
2023-01-05T13:11:13.143Z,80.50
2023-01-05T13:12:15.402Z,80.84
2023-01-05T13:13:20.692Z,81.42
2023-01-05T13:14:25.951Z,80.78
2023-01-05T13:15:40.197Z,80.67
2023-01-05T13:16:43.253Z,80.68
2023-01-05T13:17:48.552Z,81.19
2023-01-05T13:19:04.527Z,81.09
2023-01-05T13:20:30.532Z,81.60
2023-01-05T13:21:32.221Z,80.92
2023-01-05T13:22:35.342Z,81.43
2023-01-05T13:23:41.288Z,81.35
2023-01-05T13:24:59.886Z,82.44
2023-01-05T13:26:07.588Z,81.69
2023-01-05T13:27:18.305Z,81.59
2023-01-05T13:28:21.895Z,81.99
2023-01-05T13:29:29.985Z,82.25
2023-01-05T13:30:33.966Z,82.13
2023-01-05T13:31:45.964Z,82.14
2023-01-05T13:33:08.576Z,81.35
2023-01-05T13:34:38.103Z,81.23
2023-01-05T13:35:45.554Z,82.22
2023-01-05T13:36:55.946Z,82.08
2023-01-05T13:38:03.623Z,82.07
2023-01-05T13:39:19.983Z,82.07
2023-01-05T13:40:28.894Z,82.62
2023-01-05T13:41:55.030Z,82.84
2023-01-05T13:43:18.959Z,83.81
2023-01-05T13:44:32.423Z,84.45
2023-01-05T13:45:58.808Z,85.26
2023-01-05T13:47:10.204Z,85.83
2023-01-05T13:48:44.447Z,85.93
2023-01-05T13:50:02.962Z,86.38
2023-01-05T13:51:30.697Z,86.94
2023-01-05T13:52:50.739Z,86.89
2023-01-05T13:53:53.231Z,87.22
2023-01-05T13:55:01.905Z,87.01
2023-01-05T13:56:21.877Z,88.05
2023-01-05T13:57:26.235Z,88.06
2023-01-05T13:58:47.546Z,88.64
2023-01-05T14:00:04.035Z,89.80
2023-01-05T14:01:18.823Z,89.31
2023-01-05T14:02:42.003Z,88.79
2023-01-05T14:03:52.072Z,89.00
2023-01-05T14:04:53.710Z,89.79
2023-01-05T14:06:01.018Z,89.07
2023-01-05T14:07:13.423Z,89.60
2023-01-05T14:08:22.745Z,89.92
2023-01-05T14:09:35.085Z,89.76
2023-01-05T14:10:36.647Z,89.85
2023-01-05T14:11:38.272Z,90.53
2023-01-05T14:12:46.367Z,89.36
2023-01-05T14:14:08.406Z,89.85
2023-01-05T14:15:12.853Z,90.34
2023-01-05T14:16:37.402Z,89.33
2023-01-05T14:17:58.287Z,89.92
2023-01-05T14:19:21.352Z,90.20
2023-01-05T14:20:33.545Z,91.37
2023-01-05T14:22:05.417Z,90.22
2023-01-05T14:23:22.460Z,89.99
2023-01-05T14:24:37.234Z,89.90
2023-01-05T14:25:38.823Z,89.04
2023-01-05T14:27:06.800Z,89.82
2023-01-05T14:28:35.627Z,89.87
2023-01-05T14:29:48.892Z,89.84